createdAt,value
2023-03-26T00:00:42.869Z,6.6
2023-03-26T00:01:45.531Z,6.6
2023-03-26T00:02:40.081Z,6.6
2023-03-26T00:03:40.027Z,6.6
2023-03-26T00:04:40.021Z,6.6
2023-03-26T00:05:40.047Z,6.6
2023-03-26T00:06:40.164Z,6.6
2023-03-26T00:07:40.053Z,6.6
2023-03-26T00:08:40.035Z,6.6
2023-03-26T00:09:40.029Z,6.6
2023-03-26T00:10:40.035Z,6.6
2023-03-26T00:11:40.020Z,6.6
2023-03-26T00:12:40.056Z,6.6
2023-03-26T00:13:40.029Z,6.6
2023-03-26T00:14:40.027Z,6.6
2023-03-26T00:15:40.026Z,6.6
2023-03-26T00:16:40.087Z,6.6
2023-03-26T00:17:40.215Z,6.6
2023-03-26T00:18:40.029Z,6.7
2023-03-26T00:19:40.024Z,6.7
2023-03-26T00:20:40.022Z,6.7
2023-03-26T00:21:42.392Z,6.7
2023-03-26T00:22:46.827Z,6.7
2023-03-26T00:23:40.050Z,6.7
2023-03-26T00:24:40.032Z,6.7
2023-03-26T00:25:40.027Z,6.7
2023-03-26T00:26:40.031Z,6.7
2023-03-26T00:27:40.022Z,6.7
2023-03-26T00:28:40.031Z,6.7
2023-03-26T00:29:40.029Z,6.7
2023-03-26T00:30:40.061Z,6.7
2023-03-26T00:31:40.036Z,6.7
2023-03-26T00:32:40.061Z,6.7
2023-03-26T00:33:40.035Z,6.7
2023-03-26T00:34:40.037Z,6.7
2023-03-26T00:35:40.047Z,6.7
2023-03-26T00:36:40.026Z,6.7
2023-03-26T00:37:40.061Z,6.7
2023-03-26T00:38:40.034Z,6.7
2023-03-26T00:39:40.177Z,6.7
2023-03-26T00:40:40.031Z,6.7
2023-03-26T00:41:40.049Z,6.7
2023-03-26T00:42:40.108Z,6.7
2023-03-26T00:43:42.897Z,6.7
2023-03-26T00:44:45.805Z,6.8
2023-03-26T00:45:40.030Z,6.8
2023-03-26T00:46:40.169Z,6.8
2023-03-26T00:47:40.080Z,6.8
2023-03-26T00:48:44.829Z,6.8
2023-03-26T00:49:40.035Z,6.8
2023-03-26T00:50:40.035Z,6.8
2023-03-26T00:51:40.034Z,6.8
2023-03-26T00:52:40.031Z,6.8
2023-03-26T00:53:40.034Z,6.8
2023-03-26T00:54:40.033Z,6.8
2023-03-26T00:55:40.029Z,6.8
2023-03-26T00:56:40.059Z,6.8
2023-03-26T00:57:40.069Z,6.8
2023-03-26T00:58:40.030Z,6.8
2023-03-26T00:59:40.032Z,6.8
2023-03-26T01:00:40.038Z,6.8
2023-03-26T01:01:40.204Z,6.8
2023-03-26T01:02:40.101Z,6.8
2023-03-26T01:03:40.065Z,6.7
2023-03-26T01:04:43.087Z,6.7
2023-03-26T01:05:45.813Z,6.7
2023-03-26T01:06:40.036Z,6.7
2023-03-26T01:07:40.049Z,6.7
2023-03-26T01:08:40.054Z,6.6
2023-03-26T01:09:40.034Z,6.6
2023-03-26T01:10:40.025Z,6.6
2023-03-26T01:11:40.034Z,6.6
2023-03-26T01:12:40.025Z,6.6
2023-03-26T01:13:40.030Z,6.6
2023-03-26T01:14:40.066Z,6.6
2023-03-26T01:15:40.063Z,6.6
2023-03-26T01:16:40.031Z,6.6
2023-03-26T01:17:40.050Z,6.6
2023-03-26T01:18:40.037Z,6.6
2023-03-26T01:19:40.027Z,6.6
2023-03-26T01:20:40.024Z,6.6
2023-03-26T01:21:40.032Z,6.6
2023-03-26T01:22:40.044Z,6.6
2023-03-26T01:23:40.052Z,6.6
2023-03-26T01:24:40.243Z,6.6
2023-03-26T01:25:42.492Z,6.6
2023-03-26T01:26:45.943Z,6.6
2023-03-26T01:27:40.039Z,6.7
2023-03-26T01:28:40.035Z,6.7
2023-03-26T01:29:40.031Z,6.7
2023-03-26T01:30:40.036Z,6.7
2023-03-26T01:31:40.031Z,6.8
2023-03-26T01:32:40.087Z,6.8
2023-03-26T01:33:40.069Z,6.8
2023-03-26T01:34:40.036Z,6.8
2023-03-26T01:35:40.050Z,6.8
2023-03-26T01:36:40.034Z,6.9
2023-03-26T01:37:40.043Z,6.9
2023-03-26T01:38:40.034Z,6.9
2023-03-26T01:39:40.028Z,6.9
2023-03-26T01:40:40.034Z,7
2023-03-26T01:41:40.036Z,7
2023-03-26T01:42:40.032Z,7
2023-03-26T01:43:40.047Z,7
2023-03-26T01:44:40.037Z,7.1
2023-03-26T01:45:40.257Z,7.1
2023-03-26T01:46:42.638Z,7.1
2023-03-26T01:47:46.266Z,7.1
2023-03-26T01:48:40.059Z,7.1
2023-03-26T01:49:40.030Z,7.1
2023-03-26T01:50:40.031Z,7.1
2023-03-26T01:51:40.034Z,7.2
2023-03-26T01:52:40.044Z,7.2
2023-03-26T01:53:40.055Z,7.2
2023-03-26T01:54:40.032Z,7.2
2023-03-26T01:55:40.038Z,7.2
2023-03-26T01:56:40.044Z,7.2
2023-03-26T01:57:40.027Z,7.2
2023-03-26T01:58:40.025Z,7.2
2023-03-26T01:59:40.050Z,7.2
2023-03-26T02:00:40.045Z,7.2
2023-03-26T02:01:40.059Z,7.2
2023-03-26T02:02:40.109Z,7.2
2023-03-26T02:03:40.069Z,7.3
2023-03-26T02:04:40.030Z,7.3
2023-03-26T02:05:40.032Z,7.3
2023-03-26T02:06:40.370Z,7.3
2023-03-26T02:07:42.801Z,7.3
2023-03-26T02:08:46.479Z,7.3
2023-03-26T02:09:40.025Z,7.3
2023-03-26T02:10:40.032Z,7.3
2023-03-26T02:11:40.046Z,7.3
2023-03-26T02:12:40.023Z,7.3
2023-03-26T02:13:40.031Z,7.3
2023-03-26T02:14:40.027Z,7.3
2023-03-26T02:15:40.035Z,7.4
2023-03-26T02:16:40.112Z,7.4
2023-03-26T02:17:40.101Z,7.4
2023-03-26T02:18:40.037Z,7.4
2023-03-26T02:19:40.022Z,7.4
2023-03-26T02:20:40.030Z,7.4
2023-03-26T02:21:40.028Z,7.5
2023-03-26T02:22:40.023Z,7.5
2023-03-26T02:23:40.028Z,7.5
2023-03-26T02:24:40.034Z,7.5
2023-03-26T02:25:40.027Z,7.5
2023-03-26T02:26:40.030Z,7.5
2023-03-26T02:27:40.433Z,7.5
2023-03-26T02:28:43.376Z,7.5
2023-03-26T02:29:46.289Z,7.5
2023-03-26T02:30:40.032Z,7.5
2023-03-26T02:31:40.119Z,7.5
2023-03-26T02:32:40.093Z,7.5
2023-03-26T02:33:40.053Z,7.6
2023-03-26T02:34:40.018Z,7.6
2023-03-26T02:35:40.119Z,7.5
2023-03-26T02:36:40.121Z,7.6
2023-03-26T02:37:40.069Z,7.6
2023-03-26T02:38:40.050Z,7.6
2023-03-26T02:39:40.028Z,7.6
2023-03-26T02:40:40.022Z,7.6
2023-03-26T02:41:40.035Z,7.6
2023-03-26T02:42:40.030Z,7.6
2023-03-26T02:43:40.043Z,7.6
2023-03-26T02:44:40.031Z,7.6
2023-03-26T02:45:40.047Z,7.6
2023-03-26T02:46:40.023Z,7.6
2023-03-26T02:47:40.058Z,7.6
2023-03-26T02:48:40.658Z,7.6
2023-03-26T02:49:42.956Z,7.6
2023-03-26T02:50:46.312Z,7.6
2023-03-26T02:51:40.041Z,7.6
2023-03-26T02:52:40.043Z,7.6
2023-03-26T02:53:40.050Z,7.6
2023-03-26T02:54:40.025Z,7.6
2023-03-26T02:55:40.029Z,7.6
2023-03-26T02:56:40.068Z,7.6
2023-03-26T02:57:40.027Z,7.6
2023-03-26T02:58:40.041Z,7.6
2023-03-26T02:59:40.124Z,7.6
2023-03-26T03:00:40.020Z,7.6
2023-03-26T03:01:40.054Z,7.6
2023-03-26T03:02:40.093Z,7.6
2023-03-26T03:03:40.038Z,7.6
2023-03-26T03:04:40.019Z,7.6
2023-03-26T03:05:40.028Z,7.6
2023-03-26T03:06:40.019Z,7.6
2023-03-26T03:07:40.042Z,7.6
2023-03-26T03:08:40.025Z,7.6
2023-03-26T03:09:40.579Z,7.6
2023-03-26T03:10:43.013Z,7.6
2023-03-26T03:11:46.386Z,7.6
2023-03-26T03:12:40.024Z,7.7
2023-03-26T03:13:40.038Z,7.7
2023-03-26T03:14:40.043Z,7.7
2023-03-26T03:15:40.033Z,7.7
2023-03-26T03:16:40.049Z,7.7
2023-03-26T03:17:40.048Z,7.7
2023-03-26T03:18:40.028Z,7.7
2023-03-26T03:19:40.040Z,7.7
2023-03-26T03:20:40.131Z,7.7
2023-03-26T03:21:40.026Z,7.7
2023-03-26T03:22:40.031Z,7.7
2023-03-26T03:23:40.031Z,7.7
2023-03-26T03:24:40.041Z,7.7
2023-03-26T03:25:40.030Z,7.7
2023-03-26T03:26:40.023Z,7.7
2023-03-26T03:27:40.029Z,7.7
2023-03-26T03:28:40.021Z,7.7
2023-03-26T03:29:40.040Z,7.7
2023-03-26T03:30:40.796Z,7.7
2023-03-26T03:31:43.201Z,7.7
2023-03-26T03:32:46.569Z,7.6
2023-03-26T03:33:40.032Z,7.6
2023-03-26T03:34:40.048Z,7.6
2023-03-26T03:35:40.098Z,7.6
2023-03-26T03:36:40.026Z,7.6
2023-03-26T03:37:40.032Z,7.6
2023-03-26T03:38:40.041Z,7.6
2023-03-26T03:39:40.044Z,7.6
2023-03-26T03:40:40.034Z,7.6
2023-03-26T03:41:40.034Z,7.6
2023-03-26T03:42:40.027Z,7.6
2023-03-26T03:43:40.031Z,7.6
2023-03-26T03:44:40.059Z,7.6
2023-03-26T03:45:40.049Z,7.6
2023-03-26T03:46:40.085Z,7.6
2023-03-26T03:47:40.059Z,7.6
2023-03-26T03:48:40.050Z,7.6
2023-03-26T03:49:40.039Z,7.6
2023-03-26T03:50:40.068Z,7.6
2023-03-26T03:51:40.802Z,7.6
2023-03-26T03:52:43.783Z,7.6
2023-03-26T03:53:46.564Z,7.6
2023-03-26T03:54:40.548Z,7.6
2023-03-26T03:55:40.032Z,7.6
2023-03-26T03:56:40.050Z,7.6
2023-03-26T03:57:40.032Z,7.6
2023-03-26T03:58:40.032Z,7.6
2023-03-26T03:59:47.325Z,7.6
2023-03-26T04:00:40.036Z,7.6
2023-03-26T04:01:40.033Z,7.6
2023-03-26T04:02:40.101Z,7.6
2023-03-26T04:03:40.162Z,7.6
2023-03-26T04:04:40.115Z,7.6
2023-03-26T04:05:40.042Z,7.6
2023-03-26T04:06:40.026Z,7.6
2023-03-26T04:07:40.046Z,7.6
2023-03-26T04:08:40.038Z,7.6
2023-03-26T04:09:40.021Z,7.6
2023-03-26T04:10:40.039Z,7.6
2023-03-26T04:11:40.027Z,7.7
2023-03-26T04:12:40.031Z,7.6
2023-03-26T04:13:40.858Z,7.6
2023-03-26T04:14:43.912Z,7.6
2023-03-26T04:15:46.684Z,7.7
2023-03-26T04:16:40.042Z,7.7
2023-03-26T04:17:40.061Z,7.7
2023-03-26T04:18:40.025Z,7.7
2023-03-26T04:19:40.047Z,7.7
2023-03-26T04:20:40.037Z,7.7
2023-03-26T04:21:40.021Z,7.7
2023-03-26T04:22:40.035Z,7.7
2023-03-26T04:23:40.032Z,7.6
2023-03-26T04:24:40.065Z,7.7
2023-03-26T04:25:40.040Z,7.7
2023-03-26T04:26:40.023Z,7.6
2023-03-26T04:27:40.031Z,7.6
2023-03-26T04:28:40.032Z,7.6
2023-03-26T04:29:40.033Z,7.6
2023-03-26T04:30:40.031Z,7.6
2023-03-26T04:31:40.058Z,7.6
2023-03-26T04:32:40.076Z,7.6
2023-03-26T04:33:40.030Z,7.6
2023-03-26T04:34:40.896Z,7.6
2023-03-26T04:35:44.114Z,7.6
2023-03-26T04:36:46.851Z,7.6
2023-03-26T04:37:40.099Z,7.6
2023-03-26T04:38:40.026Z,7.6
2023-03-26T04:39:40.021Z,7.6
2023-03-26T04:40:40.059Z,7.6
2023-03-26T04:41:40.036Z,7.6
2023-03-26T04:42:40.026Z,7.6
2023-03-26T04:43:40.029Z,7.6
2023-03-26T04:44:40.027Z,7.6
2023-03-26T04:45:40.037Z,7.6
2023-03-26T04:46:40.046Z,7.6
2023-03-26T04:47:40.046Z,7.6
2023-03-26T04:48:40.026Z,7.6
2023-03-26T04:49:40.023Z,7.6
2023-03-26T04:50:40.047Z,7.6
2023-03-26T04:51:40.028Z,7.6
2023-03-26T04:52:40.030Z,7.6
2023-03-26T04:53:40.031Z,7.6
2023-03-26T04:54:40.026Z,7.6
2023-03-26T04:55:41.034Z,7.6
2023-03-26T04:56:44.072Z,7.6
2023-03-26T04:57:46.885Z,7.5
2023-03-26T04:58:40.035Z,7.5
2023-03-26T04:59:40.026Z,7.5
2023-03-26T05:00:40.040Z,7.5
2023-03-26T05:01:40.050Z,7.5
2023-03-26T05:02:40.119Z,7.5
2023-03-26T05:03:40.030Z,7.5
2023-03-26T05:04:40.163Z,7.5
2023-03-26T05:05:40.063Z,7.5
2023-03-26T05:06:40.055Z,7.5
2023-03-26T05:07:40.035Z,7.5
2023-03-26T05:08:40.033Z,7.5
2023-03-26T05:09:40.033Z,7.5
2023-03-26T05:10:40.028Z,7.5
2023-03-26T05:11:40.037Z,7.5
2023-03-26T05:12:40.037Z,7.5
2023-03-26T05:13:40.028Z,7.5
2023-03-26T05:14:40.029Z,7.5
2023-03-26T05:15:40.036Z,7.5
2023-03-26T05:16:41.229Z,7.5
2023-03-26T05:17:44.137Z,7.5
2023-03-26T05:18:47.119Z,7.5
2023-03-26T05:19:40.032Z,7.5
2023-03-26T05:20:40.046Z,7.5
2023-03-26T05:21:40.022Z,7.5
2023-03-26T05:22:40.029Z,7.5
2023-03-26T05:23:40.033Z,7.5
2023-03-26T05:24:40.036Z,7.5
2023-03-26T05:25:40.036Z,7.5
2023-03-26T05:26:40.033Z,7.5
2023-03-26T05:27:40.023Z,7.5
2023-03-26T05:28:40.026Z,7.5
2023-03-26T05:29:40.023Z,7.5
2023-03-26T05:30:40.023Z,7.5
2023-03-26T05:31:40.025Z,7.5
2023-03-26T05:32:40.101Z,7.5
2023-03-26T05:33:40.138Z,7.5
2023-03-26T05:34:40.045Z,7.5
2023-03-26T05:35:40.045Z,7.5
2023-03-26T05:36:40.028Z,7.5
2023-03-26T05:37:41.306Z,7.5
2023-03-26T05:38:44.274Z,7.5
2023-03-26T05:39:47.244Z,7.5
2023-03-26T05:40:40.034Z,7.5
2023-03-26T05:41:40.150Z,7.5
2023-03-26T05:42:40.029Z,7.5
2023-03-26T05:43:40.027Z,7.5
2023-03-26T05:44:40.232Z,7.5
2023-03-26T05:45:40.048Z,7.5
2023-03-26T05:46:40.029Z,7.5
2023-03-26T05:47:40.038Z,7.4
2023-03-26T05:48:40.037Z,7.4
2023-03-26T05:49:40.044Z,7.4
2023-03-26T05:50:40.043Z,7.4
2023-03-26T05:51:40.033Z,7.4
2023-03-26T05:52:40.031Z,7.3
2023-03-26T05:53:40.031Z,7.3
2023-03-26T05:54:40.042Z,7.3
2023-03-26T05:55:40.026Z,7.3
2023-03-26T05:56:40.058Z,7.3
2023-03-26T05:57:40.032Z,7.3
2023-03-26T05:58:41.377Z,7.3
2023-03-26T05:59:44.297Z,7.3
2023-03-26T06:00:47.259Z,7.3
2023-03-26T06:01:40.030Z,7.3
2023-03-26T06:02:40.237Z,7.4
2023-03-26T06:03:40.219Z,7.4
2023-03-26T06:04:40.126Z,7.3
2023-03-26T06:05:40.026Z,7.4
2023-03-26T06:06:40.033Z,7.4
2023-03-26T06:07:40.027Z,7.4
2023-03-26T06:08:40.048Z,7.4
2023-03-26T06:09:40.041Z,7.5
2023-03-26T06:10:40.039Z,7.5
2023-03-26T06:11:40.025Z,7.5
2023-03-26T06:12:40.072Z,7.5
2023-03-26T06:13:40.098Z,7.6
2023-03-26T06:14:40.054Z,7.6
2023-03-26T06:15:40.119Z,7.6
2023-03-26T06:16:40.028Z,7.6
2023-03-26T06:17:40.077Z,7.7
2023-03-26T06:18:40.061Z,7.7
2023-03-26T06:19:41.576Z,7.7
2023-03-26T06:20:44.396Z,7.7
2023-03-26T06:21:47.342Z,7.7
2023-03-26T06:22:40.039Z,7.7
2023-03-26T06:23:40.191Z,7.7
2023-03-26T06:24:40.038Z,7.7
2023-03-26T06:25:40.023Z,7.7
2023-03-26T06:26:40.042Z,7.7
2023-03-26T06:27:40.023Z,7.7
2023-03-26T06:28:40.026Z,7.7
2023-03-26T06:29:40.054Z,7.7
2023-03-26T06:30:40.030Z,7.7
2023-03-26T06:31:40.046Z,7.7
2023-03-26T06:32:40.033Z,7.7
2023-03-26T06:33:40.142Z,7.8
2023-03-26T06:34:40.037Z,7.8
2023-03-26T06:35:40.063Z,7.8
2023-03-26T06:36:40.029Z,7.8
2023-03-26T06:37:40.039Z,7.8
2023-03-26T06:38:40.022Z,7.8
2023-03-26T06:39:40.040Z,7.9
2023-03-26T06:40:41.600Z,7.9
2023-03-26T06:41:44.585Z,7.9
2023-03-26T06:43:08.440Z,7.9
2023-03-26T06:43:40.029Z,7.9
2023-03-26T06:44:40.086Z,8
2023-03-26T06:45:40.181Z,8
2023-03-26T06:46:40.376Z,8
2023-03-26T06:47:40.396Z,8
2023-03-26T06:48:40.037Z,8.1
2023-03-26T06:49:40.349Z,8.1
2023-03-26T06:50:40.044Z,8.1
2023-03-26T06:51:40.034Z,8.2
2023-03-26T06:52:40.122Z,8.2
2023-03-26T06:53:40.038Z,8.2
2023-03-26T06:54:40.217Z,8.3
2023-03-26T06:55:40.030Z,8.3
2023-03-26T06:56:40.053Z,8.3
2023-03-26T06:57:40.038Z,8.4
2023-03-26T06:58:40.040Z,8.4
2023-03-26T06:59:40.533Z,8.4
2023-03-26T07:00:40.551Z,8.4
2023-03-26T07:01:41.768Z,8.4
2023-03-26T07:02:44.612Z,8.4
2023-03-26T07:03:47.651Z,8.4
2023-03-26T07:04:40.032Z,8.5
2023-03-26T07:05:40.028Z,8.5
2023-03-26T07:06:40.030Z,8.5
2023-03-26T07:07:45.792Z,8.5
2023-03-26T07:08:40.055Z,8.6
2023-03-26T07:09:40.061Z,8.6
2023-03-26T07:10:40.035Z,8.6
2023-03-26T07:11:40.038Z,8.7
2023-03-26T07:12:40.032Z,8.7
2023-03-26T07:13:40.065Z,8.7
2023-03-26T07:14:40.036Z,8.7
2023-03-26T07:15:40.030Z,8.7
2023-03-26T07:16:40.056Z,8.8
2023-03-26T07:17:40.045Z,8.8
2023-03-26T07:18:40.051Z,8.8
2023-03-26T07:19:40.221Z,8.8
2023-03-26T07:20:40.039Z,8.8
2023-03-26T07:21:40.030Z,8.9
2023-03-26T07:22:40.037Z,8.9
2023-03-26T07:23:41.446Z,8.9
2023-03-26T07:24:44.875Z,8.9
2023-03-26T07:25:40.031Z,8.9
2023-03-26T07:26:40.037Z,8.9
2023-03-26T07:27:40.033Z,8.9
2023-03-26T07:28:40.055Z,8.9
2023-03-26T07:29:40.033Z,8.9
2023-03-26T07:30:40.035Z,8.9
2023-03-26T07:31:40.033Z,8.9
2023-03-26T07:32:40.043Z,8.9
2023-03-26T07:33:40.051Z,8.9
2023-03-26T07:34:40.047Z,8.9
2023-03-26T07:35:40.047Z,9
2023-03-26T07:36:40.029Z,9
2023-03-26T07:37:40.054Z,9
2023-03-26T07:38:40.031Z,9
2023-03-26T07:39:40.053Z,9
2023-03-26T07:40:40.039Z,9
2023-03-26T07:41:40.027Z,9
2023-03-26T07:42:40.038Z,9
2023-03-26T07:43:40.036Z,9
2023-03-26T07:44:42.127Z,9
2023-03-26T07:45:45.240Z,9
2023-03-26T07:46:40.031Z,9
2023-03-26T07:47:40.082Z,9
2023-03-26T07:48:40.031Z,9
2023-03-26T07:49:40.026Z,9
2023-03-26T07:50:40.035Z,9
2023-03-26T07:51:40.032Z,9
2023-03-26T07:52:40.027Z,9
2023-03-26T07:53:40.203Z,9
2023-03-26T07:54:40.053Z,9
2023-03-26T07:55:40.029Z,9
2023-03-26T07:56:40.086Z,9
2023-03-26T07:57:40.040Z,9
2023-03-26T07:58:40.031Z,9
2023-03-26T07:59:40.048Z,9
2023-03-26T08:00:40.032Z,9
2023-03-26T08:01:40.028Z,9
2023-03-26T08:02:40.039Z,9
2023-03-26T08:03:40.082Z,9.1
2023-03-26T08:04:40.050Z,9.1
2023-03-26T08:05:42.138Z,9.1
2023-03-26T08:06:45.120Z,9.1
2023-03-26T08:07:40.232Z,9.1
2023-03-26T08:08:40.034Z,9.1
2023-03-26T08:09:40.038Z,9.1
2023-03-26T08:10:40.029Z,9.1
2023-03-26T08:11:40.038Z,9.1
2023-03-26T08:12:40.026Z,9.1
2023-03-26T08:13:40.028Z,9.1
2023-03-26T08:14:40.037Z,9.1
2023-03-26T08:15:40.074Z,9.1
2023-03-26T08:16:40.027Z,9.1
2023-03-26T08:17:40.042Z,9.1
2023-03-26T08:18:40.027Z,9.1
2023-03-26T08:19:40.026Z,9.1
2023-03-26T08:20:40.035Z,9.1
2023-03-26T08:21:40.040Z,9.1
2023-03-26T08:22:40.034Z,9.1
2023-03-26T08:23:50.245Z,9.1
2023-03-26T08:24:40.028Z,9.1
2023-03-26T08:25:40.029Z,9.1
2023-03-26T08:26:42.315Z,9.1
2023-03-26T08:27:45.201Z,9.1
2023-03-26T08:28:40.032Z,9.1
2023-03-26T08:29:40.026Z,9.1
2023-03-26T08:30:40.105Z,9.1
2023-03-26T08:31:40.110Z,9.1
2023-03-26T08:32:40.048Z,9.1
2023-03-26T08:33:40.114Z,9.1
2023-03-26T08:34:40.021Z,9.2
2023-03-26T08:35:40.079Z,9.2
2023-03-26T08:36:40.035Z,9.2
2023-03-26T08:37:40.036Z,9.2
2023-03-26T08:38:40.049Z,9.2
2023-03-26T08:39:40.050Z,9.2
2023-03-26T08:40:40.065Z,9.2
2023-03-26T08:41:40.030Z,9.3
2023-03-26T08:42:40.028Z,9.3
2023-03-26T08:43:40.040Z,9.3
2023-03-26T08:44:40.029Z,9.3
2023-03-26T08:45:40.040Z,9.3
2023-03-26T08:46:40.054Z,9.3
2023-03-26T08:47:42.384Z,9.3
2023-03-26T08:48:45.301Z,9.3
2023-03-26T08:49:40.030Z,9.3
2023-03-26T08:50:40.035Z,9.3
2023-03-26T08:51:40.045Z,9.3
2023-03-26T08:52:40.021Z,9.3
2023-03-26T08:53:40.218Z,9.3
2023-03-26T08:54:40.235Z,9.3
2023-03-26T08:55:40.022Z,9.3
2023-03-26T08:56:40.095Z,9.3
2023-03-26T08:57:40.033Z,9.4
2023-03-26T08:58:40.046Z,9.4
2023-03-26T08:59:40.028Z,9.4
2023-03-26T09:00:40.034Z,9.4
2023-03-26T09:01:40.074Z,9.4
2023-03-26T09:02:40.050Z,9.4
2023-03-26T09:03:40.059Z,9.4
2023-03-26T09:04:40.034Z,9.4
2023-03-26T09:05:40.038Z,9.4
2023-03-26T09:06:40.072Z,9.4
2023-03-26T09:07:40.025Z,9.4
2023-03-26T09:08:54.046Z,9.4
2023-03-26T09:09:45.333Z,9.4
2023-03-26T09:10:40.023Z,9.4
2023-03-26T09:11:40.036Z,9.4
2023-03-26T09:12:40.021Z,9.4
2023-03-26T09:13:40.052Z,9.4
2023-03-26T09:14:40.041Z,9.4
2023-03-26T09:15:40.022Z,9.4
2023-03-26T09:16:40.070Z,9.4
2023-03-26T09:17:40.048Z,9.4
2023-03-26T09:18:40.032Z,9.4
2023-03-26T09:19:40.028Z,9.4
2023-03-26T09:20:40.042Z,9.4
2023-03-26T09:21:40.033Z,9.4
2023-03-26T09:22:40.030Z,9.4
2023-03-26T09:23:40.028Z,9.4
2023-03-26T09:24:40.028Z,9.4
2023-03-26T09:25:40.039Z,9.4
2023-03-26T09:26:40.032Z,9.5
2023-03-26T09:27:40.027Z,9.5
2023-03-26T09:28:40.031Z,9.5
2023-03-26T09:29:42.649Z,9.5
2023-03-26T09:30:45.443Z,9.5
2023-03-26T09:31:40.044Z,9.5
2023-03-26T09:32:40.060Z,9.5
2023-03-26T09:33:40.032Z,9.5
2023-03-26T09:34:40.043Z,9.5
2023-03-26T09:36:40.028Z,9.5
2023-03-26T09:37:56.553Z,9.6
2023-03-26T09:38:40.033Z,9.6
2023-03-26T09:39:40.040Z,9.6
2023-03-26T09:40:40.029Z,9.6
2023-03-26T09:41:40.043Z,9.6
2023-03-26T09:42:40.034Z,9.6
2023-03-26T09:43:40.036Z,9.7
2023-03-26T09:44:40.032Z,9.7
2023-03-26T09:45:40.034Z,9.7
2023-03-26T09:46:40.110Z,9.7
2023-03-26T09:47:40.052Z,9.8
2023-03-26T09:48:40.037Z,9.8
2023-03-26T09:49:40.034Z,9.8
2023-03-26T09:50:42.651Z,9.8
2023-03-26T09:51:45.538Z,9.8
2023-03-26T09:52:40.027Z,9.8
2023-03-26T09:53:40.035Z,9.8
2023-03-26T09:54:40.029Z,9.8
2023-03-26T09:55:40.025Z,9.9
2023-03-26T09:56:40.059Z,9.9
2023-03-26T09:57:40.057Z,9.9
2023-03-26T09:58:40.046Z,9.9
2023-03-26T09:59:40.032Z,9.9
2023-03-26T10:00:40.069Z,9.9
2023-03-26T10:01:40.056Z,9.9
2023-03-26T10:02:45.719Z,9.9
2023-03-26T10:03:40.030Z,9.9
2023-03-26T10:04:40.051Z,9.9
2023-03-26T10:05:40.047Z,9.9
2023-03-26T10:06:40.026Z,9.9
2023-03-26T10:07:40.123Z,9.9
2023-03-26T10:08:40.041Z,9.9
2023-03-26T10:09:40.025Z,9.9
2023-03-26T10:10:40.049Z,9.9
2023-03-26T10:11:42.870Z,9.9
2023-03-26T10:12:45.622Z,9.9
2023-03-26T10:13:40.034Z,9.9
2023-03-26T10:14:40.028Z,9.9
2023-03-26T10:15:40.028Z,9.9
2023-03-26T10:16:40.064Z,9.9
2023-03-26T10:17:40.108Z,9.9
2023-03-26T10:18:40.036Z,9.9
2023-03-26T10:19:40.051Z,9.9
2023-03-26T10:20:40.067Z,9.9
2023-03-26T10:21:40.033Z,9.9
2023-03-26T10:22:40.033Z,9.9
2023-03-26T10:23:40.028Z,9.9
2023-03-26T10:24:40.135Z,9.9
2023-03-26T10:25:40.031Z,9.9
2023-03-26T10:26:40.052Z,9.9
2023-03-26T10:27:40.028Z,9.9
2023-03-26T10:28:40.022Z,10
2023-03-26T10:29:40.181Z,10
2023-03-26T10:30:40.036Z,10
2023-03-26T10:31:40.022Z,10
2023-03-26T10:32:40.072Z,10.1
2023-03-26T10:33:43.070Z,10.1
2023-03-26T10:34:45.939Z,10
2023-03-26T10:35:40.112Z,10
2023-03-26T10:36:40.062Z,10
2023-03-26T10:37:40.075Z,10
2023-03-26T10:38:40.031Z,10
2023-03-26T10:39:41.137Z,10
2023-03-26T10:40:40.026Z,10
2023-03-26T10:41:40.043Z,10
2023-03-26T10:42:40.022Z,10
2023-03-26T10:43:40.027Z,10
2023-03-26T10:44:40.022Z,9.9
2023-03-26T10:45:40.024Z,9.9
2023-03-26T10:46:40.083Z,9.9
2023-03-26T10:47:40.033Z,9.8
2023-03-26T10:48:40.031Z,9.8
2023-03-26T10:49:40.028Z,9.8
2023-03-26T10:50:40.032Z,9.8
2023-03-26T10:51:40.028Z,9.8
2023-03-26T10:52:40.026Z,9.8
2023-03-26T10:53:40.147Z,9.8
2023-03-26T10:54:43.234Z,9.8
2023-03-26T10:55:45.967Z,9.8
2023-03-26T10:56:40.045Z,9.8
2023-03-26T10:57:40.029Z,9.8
2023-03-26T10:58:46.018Z,9.8
2023-03-26T10:59:40.041Z,9.7
2023-03-26T11:00:40.035Z,9.7
2023-03-26T11:01:40.053Z,9.7
2023-03-26T11:02:40.033Z,9.7
2023-03-26T11:03:40.038Z,9.7
2023-03-26T11:04:40.044Z,9.7
2023-03-26T11:05:40.081Z,9.7
2023-03-26T11:06:40.028Z,9.7
2023-03-26T11:07:40.030Z,9.8
2023-03-26T11:08:40.033Z,9.8
2023-03-26T11:09:40.033Z,9.8
2023-03-26T11:10:40.024Z,9.7
2023-03-26T11:11:40.032Z,9.7
2023-03-26T11:12:40.030Z,9.7
2023-03-26T11:13:40.030Z,9.7
2023-03-26T11:14:40.218Z,9.7
2023-03-26T11:15:42.732Z,9.7
2023-03-26T11:16:46.024Z,9.6
2023-03-26T11:17:41.516Z,9.6
2023-03-26T11:18:40.050Z,9.6
2023-03-26T11:19:40.039Z,9.6
2023-03-26T11:20:40.035Z,9.6
2023-03-26T11:21:40.036Z,9.6
2023-03-26T11:22:40.037Z,9.6
2023-03-26T11:23:40.059Z,9.6
2023-03-26T11:24:40.036Z,9.6
2023-03-26T11:25:40.045Z,9.6
2023-03-26T11:26:40.093Z,9.6
2023-03-26T11:28:40.055Z,9.6
2023-03-26T11:29:40.033Z,9.5
2023-03-26T11:30:40.118Z,9.5
2023-03-26T11:31:40.075Z,9.5
2023-03-26T11:32:40.060Z,9.5
2023-03-26T11:33:45.447Z,9.5
2023-03-26T11:34:40.029Z,9.5
2023-03-26T11:35:41.652Z,9.5
2023-03-26T11:36:43.368Z,9.5
2023-03-26T11:37:46.187Z,9.5
2023-03-26T11:38:40.047Z,9.5
2023-03-26T11:39:40.035Z,9.5
2023-03-26T11:40:40.037Z,9.5
2023-03-26T11:41:40.070Z,9.4
2023-03-26T11:42:40.031Z,9.4
2023-03-26T11:43:40.069Z,9.4
2023-03-26T11:44:40.039Z,9.4
2023-03-26T11:45:40.038Z,9.4
2023-03-26T11:46:40.072Z,9.4
2023-03-26T11:47:40.049Z,9.4
2023-03-26T11:48:40.078Z,9.3
2023-03-26T11:49:40.076Z,9.3
2023-03-26T11:50:40.049Z,9.3
2023-03-26T11:51:40.038Z,9.4
2023-03-26T11:52:40.040Z,9.3
2023-03-26T11:53:40.054Z,9.4
2023-03-26T11:54:40.037Z,9.4
2023-03-26T11:55:40.030Z,9.5
2023-03-26T11:56:40.423Z,9.5
2023-03-26T11:57:43.397Z,9.5
2023-03-26T11:58:45.748Z,9.5
2023-03-26T11:59:49.433Z,9.4
2023-03-26T12:00:40.027Z,9.4
2023-03-26T12:01:40.063Z,9.4
2023-03-26T12:02:40.203Z,9.4
2023-03-26T12:03:40.026Z,9.3
2023-03-26T12:04:40.126Z,9.3
2023-03-26T12:05:40.027Z,9.3
2023-03-26T12:06:40.033Z,9.3
2023-03-26T12:07:40.090Z,9.2
2023-03-26T12:08:40.046Z,9.2
2023-03-26T12:09:40.027Z,9.2
2023-03-26T12:10:40.041Z,9.2
2023-03-26T12:11:40.022Z,9.2
2023-03-26T12:12:40.018Z,9.2
2023-03-26T12:13:40.029Z,9.2
2023-03-26T12:14:40.045Z,9.2
2023-03-26T12:15:40.022Z,9.2
2023-03-26T12:16:40.062Z,9.2
2023-03-26T12:17:40.947Z,9.1
2023-03-26T12:18:43.004Z,9.1
2023-03-26T12:19:45.764Z,9.1
2023-03-26T12:20:40.028Z,9.1
2023-03-26T12:21:40.022Z,9.1
2023-03-26T12:22:41.756Z,9.1
2023-03-26T12:23:40.027Z,9.1
2023-03-26T12:24:40.028Z,9.1
2023-03-26T12:25:40.031Z,9.1
2023-03-26T12:26:40.022Z,9.1
2023-03-26T12:27:40.027Z,9.1
2023-03-26T12:28:41.437Z,9
2023-03-26T12:29:40.024Z,9
2023-03-26T12:30:40.063Z,9
2023-03-26T12:31:40.073Z,9
2023-03-26T12:32:46.030Z,9
2023-03-26T12:33:40.029Z,9
2023-03-26T12:34:40.047Z,9
2023-03-26T12:35:40.040Z,9
2023-03-26T12:36:40.023Z,9
2023-03-26T12:37:40.037Z,9
2023-03-26T12:38:40.633Z,9
2023-03-26T12:40:08.553Z,9
2023-03-26T12:40:45.896Z,9
2023-03-26T12:42:52.940Z,9
2023-03-26T12:44:45.680Z,9
2023-03-26T12:44:52.065Z,9
2023-03-26T12:44:52.526Z,9
2023-03-26T12:45:40.051Z,9
2023-03-26T12:47:54.296Z,9
2023-03-26T12:47:56.830Z,9
2023-03-26T12:48:40.133Z,9
2023-03-26T12:49:40.214Z,9
2023-03-26T12:50:40.019Z,9
2023-03-26T12:51:40.025Z,9
2023-03-26T12:52:40.029Z,9
2023-03-26T12:53:40.053Z,9
2023-03-26T12:54:40.258Z,9.1
2023-03-26T12:55:40.027Z,9.1
2023-03-26T12:56:40.039Z,9.1
2023-03-26T12:57:40.041Z,9.1
2023-03-26T12:58:40.027Z,9.1
2023-03-26T12:59:40.311Z,9.1
2023-03-26T13:00:43.980Z,9.2
2023-03-26T13:01:46.650Z,9.2
2023-03-26T13:02:40.079Z,9.2
2023-03-26T13:03:40.022Z,9.3
2023-03-26T13:04:40.034Z,9.3
2023-03-26T13:05:40.038Z,9.3
2023-03-26T13:06:48.444Z,9.4
2023-03-26T13:07:40.051Z,9.4
2023-03-26T13:08:40.030Z,9.4
2023-03-26T13:09:40.027Z,9.4
2023-03-26T13:10:40.037Z,9.3
2023-03-26T13:11:40.035Z,9.4
2023-03-26T13:12:40.028Z,9.4
2023-03-26T13:13:40.035Z,9.4
2023-03-26T13:14:40.025Z,9.4
2023-03-26T13:15:40.096Z,9.4
2023-03-26T13:16:40.063Z,9.4
2023-03-26T13:17:40.055Z,9.4
2023-03-26T13:18:40.055Z,9.4
2023-03-26T13:19:40.029Z,9.4
2023-03-26T13:20:40.684Z,9.4
2023-03-26T13:21:43.881Z,9.4
2023-03-26T13:22:46.129Z,9.4
2023-03-26T13:23:40.040Z,9.4
2023-03-26T13:24:40.033Z,9.4
2023-03-26T13:25:40.049Z,9.3
2023-03-26T13:26:40.021Z,9.3
2023-03-26T13:27:40.035Z,9.3
2023-03-26T13:28:40.043Z,9.2
2023-03-26T13:29:40.029Z,9.2
2023-03-26T13:30:40.044Z,9.1
2023-03-26T13:31:40.043Z,9.1
2023-03-26T13:32:40.063Z,9
2023-03-26T13:33:40.048Z,9
2023-03-26T13:34:40.036Z,9
2023-03-26T13:35:40.112Z,9
2023-03-26T13:36:40.092Z,8.9
2023-03-26T13:37:40.041Z,8.9
2023-03-26T13:38:40.025Z,8.8
2023-03-26T13:39:40.029Z,8.8
2023-03-26T13:40:40.042Z,8.8
2023-03-26T13:41:40.389Z,8.8
2023-03-26T13:42:44.046Z,8.7
2023-03-26T13:43:46.897Z,8.7
2023-03-26T13:44:40.025Z,8.7
2023-03-26T13:45:40.064Z,8.7
2023-03-26T13:46:40.132Z,8.7
2023-03-26T13:47:40.053Z,8.7
2023-03-26T13:48:40.025Z,8.7
2023-03-26T13:49:40.167Z,8.8
2023-03-26T13:50:40.030Z,8.8
2023-03-26T13:51:40.033Z,8.8
2023-03-26T13:52:40.044Z,8.8
2023-03-26T13:53:40.030Z,8.9